sensor_id;sensor_type;location;lat;lon;timestamp;P1;durP1;ratioP1;P2;durP2;ratioP2
72117;SDS011;59992;47.490;8.736;2024-01-11T00:02:27;262.90;;;36.00;;
72117;SDS011;59992;47.490;8.736;2024-01-11T00:05:17;282.10;;;37.20;;
72117;SDS011;59992;47.490;8.736;2024-01-11T00:08:08;266.40;;;35.70;;
72117;SDS011;59992;47.490;8.736;2024-01-11T00:10:59;280.00;;;35.40;;
72117;SDS011;59992;47.490;8.736;2024-01-11T00:13:49;253.30;;;36.80;;
72117;SDS011;59992;47.490;8.736;2024-01-11T00:16:40;265.30;;;37.70;;
72117;SDS011;59992;47.490;8.736;2024-01-11T00:19:30;242.40;;;31.90;;
72117;SDS011;59992;47.490;8.736;2024-01-11T00:22:20;234.60;;;31.40;;
72117;SDS011;59992;47.490;8.736;2024-01-11T00:25:10;258.30;;;34.90;;
72117;SDS011;59992;47.490;8.736;2024-01-11T00:28:01;250.70;;;36.10;;
72117;SDS011;59992;47.490;8.736;2024-01-11T00:30:51;234.10;;;32.40;;
72117;SDS011;59992;47.490;8.736;2024-01-11T00:33:42;224.00;;;30.10;;
72117;SDS011;59992;47.490;8.736;2024-01-11T00:36:32;225.00;;;33.80;;
72117;SDS011;59992;47.490;8.736;2024-01-11T00:39:23;214.60;;;30.00;;
72117;SDS011;59992;47.490;8.736;2024-01-11T00:42:14;223.20;;;31.00;;
72117;SDS011;59992;47.490;8.736;2024-01-11T00:45:05;200.10;;;28.10;;
72117;SDS011;59992;47.490;8.736;2024-01-11T00:47:56;216.10;;;33.20;;
72117;SDS011;59992;47.490;8.736;2024-01-11T00:50:46;232.10;;;30.70;;
72117;SDS011;59992;47.490;8.736;2024-01-11T00:53:36;241.40;;;34.10;;
72117;SDS011;59992;47.490;8.736;2024-01-11T00:56:27;231.70;;;33.40;;
72117;SDS011;59992;47.490;8.736;2024-01-11T00:59:18;212.00;;;33.20;;
72117;SDS011;59992;47.490;8.736;2024-01-11T01:02:08;223.30;;;32.60;;
72117;SDS011;59992;47.490;8.736;2024-01-11T01:04:58;252.40;;;35.50;;
72117;SDS011;59992;47.490;8.736;2024-01-11T01:07:48;256.50;;;34.10;;
72117;SDS011;59992;47.490;8.736;2024-01-11T01:10:40;267.20;;;36.20;;
72117;SDS011;59992;47.490;8.736;2024-01-11T01:13:30;261.60;;;29.20;;
72117;SDS011;59992;47.490;8.736;2024-01-11T01:16:20;277.90;;;38.30;;
72117;SDS011;59992;47.490;8.736;2024-01-11T01:19:11;268.40;;;38.20;;
72117;SDS011;59992;47.490;8.736;2024-01-11T01:22:01;259.40;;;36.30;;
72117;SDS011;59992;47.490;8.736;2024-01-11T01:24:52;291.50;;;40.50;;
72117;SDS011;59992;47.490;8.736;2024-01-11T01:27:42;302.70;;;42.70;;
72117;SDS011;59992;47.490;8.736;2024-01-11T01:30:32;270.80;;;39.30;;
72117;SDS011;59992;47.490;8.736;2024-01-11T01:33:22;274.40;;;42.30;;
72117;SDS011;59992;47.490;8.736;2024-01-11T01:36:13;303.60;;;43.90;;
72117;SDS011;59992;47.490;8.736;2024-01-11T01:39:03;286.50;;;42.70;;
72117;SDS011;59992;47.490;8.736;2024-01-11T01:41:53;295.30;;;43.10;;
72117;SDS011;59992;47.490;8.736;2024-01-11T01:44:43;253.80;;;40.10;;
72117;SDS011;59992;47.490;8.736;2024-01-11T01:47:34;259.50;;;39.60;;
72117;SDS011;59992;47.490;8.736;2024-01-11T01:50:24;261.30;;;39.30;;
72117;SDS011;59992;47.490;8.736;2024-01-11T01:53:14;282.70;;;42.80;;
72117;SDS011;59992;47.490;8.736;2024-01-11T01:56:05;250.00;;;41.20;;
72117;SDS011;59992;47.490;8.736;2024-01-11T01:58:57;283.10;;;40.80;;
72117;SDS011;59992;47.490;8.736;2024-01-11T02:01:49;277.20;;;43.40;;
72117;SDS011;59992;47.490;8.736;2024-01-11T02:04:39;254.10;;;43.20;;
72117;SDS011;59992;47.490;8.736;2024-01-11T02:07:30;234.60;;;39.30;;
72117;SDS011;59992;47.490;8.736;2024-01-11T02:10:20;249.80;;;39.00;;
72117;SDS011;59992;47.490;8.736;2024-01-11T02:13:12;241.60;;;38.90;;
72117;SDS011;59992;47.490;8.736;2024-01-11T02:16:02;242.70;;;41.40;;
72117;SDS011;59992;47.490;8.736;2024-01-11T02:18:53;264.20;;;38.80;;
72117;SDS011;59992;47.490;8.736;2024-01-11T02:21:43;234.00;;;37.70;;
72117;SDS011;59992;47.490;8.736;2024-01-11T02:24:35;251.40;;;36.90;;
72117;SDS011;59992;47.490;8.736;2024-01-11T02:27:25;255.10;;;39.60;;
72117;SDS011;59992;47.490;8.736;2024-01-11T02:30:16;266.60;;;42.00;;
72117;SDS011;59992;47.490;8.736;2024-01-11T02:33:06;246.30;;;39.10;;
72117;SDS011;59992;47.490;8.736;2024-01-11T02:35:57;266.50;;;39.60;;
72117;SDS011;59992;47.490;8.736;2024-01-11T02:38:48;268.10;;;40.30;;
72117;SDS011;59992;47.490;8.736;2024-01-11T02:41:39;263.80;;;40.60;;
72117;SDS011;59992;47.490;8.736;2024-01-11T02:44:31;277.30;;;42.20;;
72117;SDS011;59992;47.490;8.736;2024-01-11T02:47:21;265.20;;;43.20;;
72117;SDS011;59992;47.490;8.736;2024-01-11T02:50:11;277.00;;;36.70;;
72117;SDS011;59992;47.490;8.736;2024-01-11T02:53:01;269.80;;;38.40;;
72117;SDS011;59992;47.490;8.736;2024-01-11T02:55:52;232.80;;;35.10;;
72117;SDS011;59992;47.490;8.736;2024-01-11T02:58:42;270.60;;;37.90;;
72117;SDS011;59992;47.490;8.736;2024-01-11T03:01:32;266.80;;;39.40;;
72117;SDS011;59992;47.490;8.736;2024-01-11T03:04:23;243.50;;;39.10;;
72117;SDS011;59992;47.490;8.736;2024-01-11T03:07:13;272.70;;;39.50;;
72117;SDS011;59992;47.490;8.736;2024-01-11T03:10:04;248.30;;;35.70;;
72117;SDS011;59992;47.490;8.736;2024-01-11T03:12:55;269.20;;;37.70;;
72117;SDS011;59992;47.490;8.736;2024-01-11T03:15:46;261.30;;;35.60;;
72117;SDS011;59992;47.490;8.736;2024-01-11T03:18:36;248.90;;;38.40;;
72117;SDS011;59992;47.490;8.736;2024-01-11T03:21:26;257.20;;;35.20;;
72117;SDS011;59992;47.490;8.736;2024-01-11T03:24:17;241.70;;;36.90;;
72117;SDS011;59992;47.490;8.736;2024-01-11T03:27:07;265.10;;;38.20;;
72117;SDS011;59992;47.490;8.736;2024-01-11T03:29:57;256.50;;;35.20;;
72117;SDS011;59992;47.490;8.736;2024-01-11T03:32:47;282.90;;;39.40;;
72117;SDS011;59992;47.490;8.736;2024-01-11T03:35:38;284.80;;;39.90;;
72117;SDS011;59992;47.490;8.736;2024-01-11T03:38:31;264.80;;;36.50;;
72117;SDS011;59992;47.490;8.736;2024-01-11T03:41:21;223.10;;;31.10;;
72117;SDS011;59992;47.490;8.736;2024-01-11T03:44:11;253.40;;;37.00;;
72117;SDS011;59992;47.490;8.736;2024-01-11T03:47:01;262.70;;;37.80;;
72117;SDS011;59992;47.490;8.736;2024-01-11T03:49:52;236.60;;;37.10;;
72117;SDS011;59992;47.490;8.736;2024-01-11T03:52:42;270.00;;;38.80;;
72117;SDS011;59992;47.490;8.736;2024-01-11T03:55:32;223.80;;;35.50;;
72117;SDS011;59992;47.490;8.736;2024-01-11T03:58:22;275.50;;;39.70;;
72117;SDS011;59992;47.490;8.736;2024-01-11T04:01:14;241.20;;;34.40;;
72117;SDS011;59992;47.490;8.736;2024-01-11T04:04:04;256.50;;;34.90;;
72117;SDS011;59992;47.490;8.736;2024-01-11T04:06:54;267.30;;;40.50;;
72117;SDS011;59992;47.490;8.736;2024-01-11T04:09:44;272.80;;;37.10;;
72117;SDS011;59992;47.490;8.736;2024-01-11T04:12:34;269.50;;;37.20;;
72117;SDS011;59992;47.490;8.736;2024-01-11T04:15:25;243.40;;;39.60;;
72117;SDS011;59992;47.490;8.736;2024-01-11T04:18:15;260.30;;;37.50;;
72117;SDS011;59992;47.490;8.736;2024-01-11T04:21:05;240.20;;;37.00;;
72117;SDS011;59992;47.490;8.736;2024-01-11T04:23:55;232.90;;;36.40;;
72117;SDS011;59992;47.490;8.736;2024-01-11T04:26:46;236.10;;;36.40;;
72117;SDS011;59992;47.490;8.736;2024-01-11T04:29:36;252.40;;;37.50;;
72117;SDS011;59992;47.490;8.736;2024-01-11T04:32:26;247.30;;;38.10;;
72117;SDS011;59992;47.490;8.736;2024-01-11T04:35:16;249.80;;;35.50;;
72117;SDS011;59992;47.490;8.736;2024-01-11T04:38:06;254.00;;;37.10;;
72117;SDS011;59992;47.490;8.736;2024-01-11T04:40:57;238.90;;;36.20;;
72117;SDS011;59992;47.490;8.736;2024-01-11T04:43:47;238.50;;;35.00;;
72117;SDS011;59992;47.490;8.736;2024-01-11T04:46:37;270.40;;;41.20;;
72117;SDS011;59992;47.490;8.736;2024-01-11T04:49:27;265.40;;;36.90;;
72117;SDS011;59992;47.490;8.736;2024-01-11T04:52:18;287.50;;;39.20;;
72117;SDS011;59992;47.490;8.736;2024-01-11T04:55:08;180.90;;;27.50;;
72117;SDS011;59992;47.490;8.736;2024-01-11T04:57:59;271.10;;;36.80;;
72117;SDS011;59992;47.490;8.736;2024-01-11T05:00:49;293.80;;;42.20;;
72117;SDS011;59992;47.490;8.736;2024-01-11T05:03:39;263.50;;;40.00;;
72117;SDS011;59992;47.490;8.736;2024-01-11T05:06:30;308.30;;;41.70;;
72117;SDS011;59992;47.490;8.736;2024-01-11T05:09:20;266.00;;;40.50;;
72117;SDS011;59992;47.490;8.736;2024-01-11T05:12:10;281.60;;;41.30;;
72117;SDS011;59992;47.490;8.736;2024-01-11T05:15:01;276.60;;;41.30;;
72117;SDS011;59992;47.490;8.736;2024-01-11T05:17:51;305.70;;;42.90;;
72117;SDS011;59992;47.490;8.736;2024-01-11T05:20:43;274.00;;;38.40;;
72117;SDS011;59992;47.490;8.736;2024-01-11T05:23:33;270.60;;;41.90;;
72117;SDS011;59992;47.490;8.736;2024-01-11T05:26:23;282.30;;;42.50;;
72117;SDS011;59992;47.490;8.736;2024-01-11T05:29:14;290.80;;;41.60;;
72117;SDS011;59992;47.490;8.736;2024-01-11T05:32:05;300.30;;;41.30;;
72117;SDS011;59992;47.490;8.736;2024-01-11T05:34:55;314.90;;;44.10;;
72117;SDS011;59992;47.490;8.736;2024-01-11T05:37:45;260.30;;;40.00;;
72117;SDS011;59992;47.490;8.736;2024-01-11T05:40:36;297.20;;;40.00;;
72117;SDS011;59992;47.490;8.736;2024-01-11T05:43:26;280.50;;;40.60;;
72117;SDS011;59992;47.490;8.736;2024-01-11T05:46:16;284.60;;;39.70;;
72117;SDS011;59992;47.490;8.736;2024-01-11T05:49:06;254.80;;;38.70;;
72117;SDS011;59992;47.490;8.736;2024-01-11T05:51:56;278.00;;;41.30;;
72117;SDS011;59992;47.490;8.736;2024-01-11T05:54:46;291.60;;;39.70;;
72117;SDS011;59992;47.490;8.736;2024-01-11T05:57:37;206.90;;;27.50;;
72117;SDS011;59992;47.490;8.736;2024-01-11T06:00:27;269.50;;;39.30;;
72117;SDS011;59992;47.490;8.736;2024-01-11T06:03:17;250.70;;;39.30;;
72117;SDS011;59992;47.490;8.736;2024-01-11T06:06:08;275.90;;;39.80;;
72117;SDS011;59992;47.490;8.736;2024-01-11T06:08:58;264.70;;;39.00;;
72117;SDS011;59992;47.490;8.736;2024-01-11T06:11:51;287.20;;;42.70;;
72117;SDS011;59992;47.490;8.736;2024-01-11T06:14:41;281.40;;;40.30;;
72117;SDS011;59992;47.490;8.736;2024-01-11T06:17:31;268.50;;;39.60;;
72117;SDS011;59992;47.490;8.736;2024-01-11T06:20:21;262.90;;;39.20;;
72117;SDS011;59992;47.490;8.736;2024-01-11T06:23:11;262.80;;;42.60;;
72117;SDS011;59992;47.490;8.736;2024-01-11T06:26:04;274.00;;;40.20;;
72117;SDS011;59992;47.490;8.736;2024-01-11T06:28:53;287.80;;;42.10;;
72117;SDS011;59992;47.490;8.736;2024-01-11T06:31:44;271.30;;;42.30;;
72117;SDS011;59992;47.490;8.736;2024-01-11T06:34:34;264.10;;;44.70;;
72117;SDS011;59992;47.490;8.736;2024-01-11T06:37:24;287.20;;;44.70;;
72117;SDS011;59992;47.490;8.736;2024-01-11T06:40:15;289.20;;;44.00;;
72117;SDS011;59992;47.490;8.736;2024-01-11T06:43:06;274.40;;;42.20;;
72117;SDS011;59992;47.490;8.736;2024-01-11T06:45:57;250.70;;;40.60;;
72117;SDS011;59992;47.490;8.736;2024-01-11T06:48:52;234.90;;;38.10;;
72117;SDS011;59992;47.490;8.736;2024-01-11T06:51:42;223.40;;;34.20;;
72117;SDS011;59992;47.490;8.736;2024-01-11T06:54:32;213.70;;;31.80;;
72117;SDS011;59992;47.490;8.736;2024-01-11T06:57:22;202.50;;;29.00;;
72117;SDS011;59992;47.490;8.736;2024-01-11T07:00:13;227.40;;;32.20;;
72117;SDS011;59992;47.490;8.736;2024-01-11T07:03:03;191.80;;;31.30;;
72117;SDS011;59992;47.490;8.736;2024-01-11T07:05:54;223.50;;;33.80;;
72117;SDS011;59992;47.490;8.736;2024-01-11T07:08:44;206.10;;;29.60;;
72117;SDS011;59992;47.490;8.736;2024-01-11T07:11:35;215.10;;;31.70;;
72117;SDS011;59992;47.490;8.736;2024-01-11T07:14:25;213.20;;;30.60;;
72117;SDS011;59992;47.490;8.736;2024-01-11T07:17:17;201.60;;;28.80;;
72117;SDS011;59992;47.490;8.736;2024-01-11T07:20:09;207.20;;;30.70;;
72117;SDS011;59992;47.490;8.736;2024-01-11T07:23:00;244.10;;;34.10;;
72117;SDS011;59992;47.490;8.736;2024-01-11T07:25:50;243.60;;;34.20;;
72117;SDS011;59992;47.490;8.736;2024-01-11T07:28:40;231.30;;;33.10;;
72117;SDS011;59992;47.490;8.736;2024-01-11T07:31:31;240.30;;;33.00;;
72117;SDS011;59992;47.490;8.736;2024-01-11T07:34:21;232.70;;;31.90;;
72117;SDS011;59992;47.490;8.736;2024-01-11T07:37:11;209.90;;;31.80;;
72117;SDS011;59992;47.490;8.736;2024-01-11T07:40:02;207.10;;;34.70;;
72117;SDS011;59992;47.490;8.736;2024-01-11T07:42:57;233.10;;;35.90;;
72117;SDS011;59992;47.490;8.736;2024-01-11T07:45:47;199.50;;;32.30;;
72117;SDS011;59992;47.490;8.736;2024-01-11T07:48:38;222.60;;;33.20;;
72117;SDS011;59992;47.490;8.736;2024-01-11T07:51:28;228.20;;;34.90;;
72117;SDS011;59992;47.490;8.736;2024-01-11T07:54:18;207.20;;;33.90;;
72117;SDS011;59992;47.490;8.736;2024-01-11T07:57:08;233.20;;;36.50;;
72117;SDS011;59992;47.490;8.736;2024-01-11T07:59:58;241.10;;;39.60;;
72117;SDS011;59992;47.490;8.736;2024-01-11T08:02:50;221.60;;;36.40;;
72117;SDS011;59992;47.490;8.736;2024-01-11T08:05:41;243.50;;;38.70;;
72117;SDS011;59992;47.490;8.736;2024-01-11T08:08:32;266.90;;;40.80;;
72117;SDS011;59992;47.490;8.736;2024-01-11T08:11:23;265.10;;;44.30;;
72117;SDS011;59992;47.490;8.736;2024-01-11T08:14:13;257.50;;;41.10;;
72117;SDS011;59992;47.490;8.736;2024-01-11T08:17:04;242.80;;;38.70;;
72117;SDS011;59992;47.490;8.736;2024-01-11T08:19:54;241.10;;;36.20;;
72117;SDS011;59992;47.490;8.736;2024-01-11T08:22:45;230.10;;;38.10;;
72117;SDS011;59992;47.490;8.736;2024-01-11T08:25:35;229.00;;;36.00;;
72117;SDS011;59992;47.490;8.736;2024-01-11T08:28:26;294.30;;;42.50;;
72117;SDS011;59992;47.490;8.736;2024-01-11T08:31:16;290.00;;;44.70;;
72117;SDS011;59992;47.490;8.736;2024-01-11T08:34:07;255.70;;;42.20;;
72117;SDS011;59992;47.490;8.736;2024-01-11T08:36:57;263.90;;;39.60;;
72117;SDS011;59992;47.490;8.736;2024-01-11T08:39:48;244.60;;;41.70;;
72117;SDS011;59992;47.490;8.736;2024-01-11T08:42:38;240.30;;;39.30;;
72117;SDS011;59992;47.490;8.736;2024-01-11T08:45:30;229.10;;;35.60;;
72117;SDS011;59992;47.490;8.736;2024-01-11T08:48:20;259.50;;;42.20;;
72117;SDS011;59992;47.490;8.736;2024-01-11T08:51:10;256.50;;;41.20;;
72117;SDS011;59992;47.490;8.736;2024-01-11T08:54:01;249.80;;;38.50;;
72117;SDS011;59992;47.490;8.736;2024-01-11T08:56:51;242.20;;;40.00;;
72117;SDS011;59992;47.490;8.736;2024-01-11T08:59:42;249.50;;;41.70;;
72117;SDS011;59992;47.490;8.736;2024-01-11T09:02:32;235.40;;;38.60;;
72117;SDS011;59992;47.490;8.736;2024-01-11T09:05:23;243.30;;;39.50;;
72117;SDS011;59992;47.490;8.736;2024-01-11T09:08:13;232.80;;;38.70;;
72117;SDS011;59992;47.490;8.736;2024-01-11T09:11:03;245.30;;;36.60;;
72117;SDS011;59992;47.490;8.736;2024-01-11T09:13:53;218.70;;;36.50;;
72117;SDS011;59992;47.490;8.736;2024-01-11T09:16:45;217.00;;;36.80;;
72117;SDS011;59992;47.490;8.736;2024-01-11T09:19:36;202.20;;;35.30;;
72117;SDS011;59992;47.490;8.736;2024-01-11T09:22:27;195.30;;;34.30;;
72117;SDS011;59992;47.490;8.736;2024-01-11T09:25:17;199.60;;;35.30;;
72117;SDS011;59992;47.490;8.736;2024-01-11T09:28:08;177.60;;;35.10;;
72117;SDS011;59992;47.490;8.736;2024-01-11T09:30:58;186.40;;;35.70;;
72117;SDS011;59992;47.490;8.736;2024-01-11T09:33:49;198.60;;;38.50;;
72117;SDS011;59992;47.490;8.736;2024-01-11T09:36:40;175.00;;;35.40;;
72117;SDS011;59992;47.490;8.736;2024-01-11T09:39:30;176.70;;;34.20;;
72117;SDS011;59992;47.490;8.736;2024-01-11T09:42:21;177.90;;;33.80;;
72117;SDS011;59992;47.490;8.736;2024-01-11T09:45:12;190.50;;;33.40;;
72117;SDS011;59992;47.490;8.736;2024-01-11T09:48:03;179.00;;;34.20;;
72117;SDS011;59992;47.490;8.736;2024-01-11T09:50:54;192.90;;;35.10;;
72117;SDS011;59992;47.490;8.736;2024-01-11T09:53:47;200.10;;;34.40;;
72117;SDS011;59992;47.490;8.736;2024-01-11T09:56:43;194.10;;;34.20;;
72117;SDS011;59992;47.490;8.736;2024-01-11T09:59:33;168.70;;;34.10;;
72117;SDS011;59992;47.490;8.736;2024-01-11T10:02:24;203.20;;;34.50;;
72117;SDS011;59992;47.490;8.736;2024-01-11T10:05:14;180.60;;;35.00;;
72117;SDS011;59992;47.490;8.736;2024-01-11T10:08:06;175.10;;;33.50;;
72117;SDS011;59992;47.490;8.736;2024-01-11T10:10:57;181.30;;;32.60;;
72117;SDS011;59992;47.490;8.736;2024-01-11T10:13:47;195.10;;;33.90;;
72117;SDS011;59992;47.490;8.736;2024-01-11T10:16:44;175.80;;;32.10;;
72117;SDS011;59992;47.490;8.736;2024-01-11T10:19:35;153.20;;;33.80;;
72117;SDS011;59992;47.490;8.736;2024-01-11T10:22:26;171.20;;;32.40;;
72117;SDS011;59992;47.490;8.736;2024-01-11T10:25:16;177.60;;;34.60;;
72117;SDS011;59992;47.490;8.736;2024-01-11T10:28:07;143.20;;;31.50;;
72117;SDS011;59992;47.490;8.736;2024-01-11T10:30:57;177.20;;;31.20;;
72117;SDS011;59992;47.490;8.736;2024-01-11T10:33:47;157.00;;;31.00;;
72117;SDS011;59992;47.490;8.736;2024-01-11T10:36:38;164.60;;;33.00;;
72117;SDS011;59992;47.490;8.736;2024-01-11T10:39:29;159.80;;;30.70;;
72117;SDS011;59992;47.490;8.736;2024-01-11T10:42:23;164.20;;;31.10;;
72117;SDS011;59992;47.490;8.736;2024-01-11T10:45:15;145.00;;;30.50;;
72117;SDS011;59992;47.490;8.736;2024-01-11T10:48:07;134.00;;;29.40;;
72117;SDS011;59992;47.490;8.736;2024-01-11T10:51:02;150.40;;;31.70;;
72117;SDS011;59992;47.490;8.736;2024-01-11T10:53:57;142.70;;;28.40;;
72117;SDS011;59992;47.490;8.736;2024-01-11T10:56:48;178.80;;;32.50;;
72117;SDS011;59992;47.490;8.736;2024-01-11T10:59:41;168.20;;;41.00;;
72117;SDS011;59992;47.490;8.736;2024-01-11T11:02:32;186.30;;;37.30;;
72117;SDS011;59992;47.490;8.736;2024-01-11T11:05:24;137.10;;;32.20;;
72117;SDS011;59992;47.490;8.736;2024-01-11T11:08:16;188.60;;;33.90;;
72117;SDS011;59992;47.490;8.736;2024-01-11T11:11:08;204.30;;;36.80;;
72117;SDS011;59992;47.490;8.736;2024-01-11T11:14:00;185.90;;;35.40;;
72117;SDS011;59992;47.490;8.736;2024-01-11T11:16:52;191.20;;;35.60;;
72117;SDS011;59992;47.490;8.736;2024-01-11T11:19:43;193.10;;;37.70;;
72117;SDS011;59992;47.490;8.736;2024-01-11T11:22:34;185.70;;;35.30;;
72117;SDS011;59992;47.490;8.736;2024-01-11T11:25:25;181.00;;;38.30;;
72117;SDS011;59992;47.490;8.736;2024-01-11T11:28:18;199.50;;;33.40;;
72117;SDS011;59992;47.490;8.736;2024-01-11T11:31:11;194.80;;;37.10;;
72117;SDS011;59992;47.490;8.736;2024-01-11T11:34:02;180.40;;;34.50;;
72117;SDS011;59992;47.490;8.736;2024-01-11T11:36:54;179.90;;;30.20;;
72117;SDS011;59992;47.490;8.736;2024-01-11T11:39:47;203.40;;;34.70;;
72117;SDS011;59992;47.490;8.736;2024-01-11T11:42:37;190.20;;;35.90;;
72117;SDS011;59992;47.490;8.736;2024-01-11T11:45:29;183.90;;;36.30;;
72117;SDS011;59992;47.490;8.736;2024-01-11T11:51:40;181.00;;;33.80;;
72117;SDS011;59992;47.490;8.736;2024-01-11T11:54:31;180.70;;;32.80;;
72117;SDS011;59992;47.490;8.736;2024-01-11T11:57:22;167.50;;;34.50;;
72117;SDS011;59992;47.490;8.736;2024-01-11T12:00:13;166.60;;;34.10;;
72117;SDS011;59992;47.490;8.736;2024-01-11T12:03:04;115.70;;;29.20;;
72117;SDS011;59992;47.490;8.736;2024-01-11T12:05:55;152.10;;;32.50;;
72117;SDS011;59992;47.490;8.736;2024-01-11T12:08:46;152.20;;;29.80;;
72117;SDS011;59992;47.490;8.736;2024-01-11T12:11:36;178.00;;;31.60;;
72117;SDS011;59992;47.490;8.736;2024-01-11T12:14:27;180.00;;;34.80;;
72117;SDS011;59992;47.490;8.736;2024-01-11T12:17:17;184.10;;;30.60;;
72117;SDS011;59992;47.490;8.736;2024-01-11T12:20:08;176.60;;;32.40;;
72117;SDS011;59992;47.490;8.736;2024-01-11T12:23:00;172.80;;;31.80;;
72117;SDS011;59992;47.490;8.736;2024-01-11T12:25:51;146.50;;;32.70;;
72117;SDS011;59992;47.490;8.736;2024-01-11T12:28:41;149.50;;;31.20;;
72117;SDS011;59992;47.490;8.736;2024-01-11T12:31:31;165.40;;;31.20;;
72117;SDS011;59992;47.490;8.736;2024-01-11T12:34:22;138.50;;;33.20;;
72117;SDS011;59992;47.490;8.736;2024-01-11T12:37:14;162.90;;;31.80;;
72117;SDS011;59992;47.490;8.736;2024-01-11T12:40:05;149.40;;;30.10;;
72117;SDS011;59992;47.490;8.736;2024-01-11T12:43:00;149.00;;;33.20;;
72117;SDS011;59992;47.490;8.736;2024-01-11T12:45:51;125.60;;;28.60;;
72117;SDS011;59992;47.490;8.736;2024-01-11T12:48:41;143.40;;;28.30;;
72117;SDS011;59992;47.490;8.736;2024-01-11T12:51:32;142.10;;;28.60;;
72117;SDS011;59992;47.490;8.736;2024-01-11T12:54:24;145.00;;;30.80;;
72117;SDS011;59992;47.490;8.736;2024-01-11T12:57:18;129.70;;;30.20;;
72117;SDS011;59992;47.490;8.736;2024-01-11T13:00:12;149.00;;;28.20;;
72117;SDS011;59992;47.490;8.736;2024-01-11T13:03:05;127.30;;;27.10;;
72117;SDS011;59992;47.490;8.736;2024-01-11T13:05:56;140.90;;;28.80;;
72117;SDS011;59992;47.490;8.736;2024-01-11T13:08:46;115.20;;;27.00;;
72117;SDS011;59992;47.490;8.736;2024-01-11T13:11:37;172.20;;;29.30;;
72117;SDS011;59992;47.490;8.736;2024-01-11T13:14:27;151.40;;;32.30;;
72117;SDS011;59992;47.490;8.736;2024-01-11T13:17:17;162.80;;;32.00;;
72117;SDS011;59992;47.490;8.736;2024-01-11T13:20:08;144.40;;;28.90;;
72117;SDS011;59992;47.490;8.736;2024-01-11T13:23:15;132.90;;;28.70;;
72117;SDS011;59992;47.490;8.736;2024-01-11T13:26:07;129.60;;;31.00;;
72117;SDS011;59992;47.490;8.736;2024-01-11T13:28:58;136.60;;;25.80;;
72117;SDS011;59992;47.490;8.736;2024-01-11T13:31:48;146.30;;;30.00;;
72117;SDS011;59992;47.490;8.736;2024-01-11T13:34:39;118.30;;;24.00;;
72117;SDS011;59992;47.490;8.736;2024-01-11T13:37:30;141.80;;;28.20;;
72117;SDS011;59992;47.490;8.736;2024-01-11T13:40:20;132.70;;;27.40;;
72117;SDS011;59992;47.490;8.736;2024-01-11T13:43:11;120.10;;;25.80;;
72117;SDS011;59992;47.490;8.736;2024-01-11T13:46:01;110.70;;;25.40;;
72117;SDS011;59992;47.490;8.736;2024-01-11T13:48:52;119.00;;;27.80;;
72117;SDS011;59992;47.490;8.736;2024-01-11T13:51:43;125.90;;;26.10;;
72117;SDS011;59992;47.490;8.736;2024-01-11T13:54:34;146.10;;;26.40;;
72117;SDS011;59992;47.490;8.736;2024-01-11T13:57:25;137.20;;;28.70;;
72117;SDS011;59992;47.490;8.736;2024-01-11T14:00:15;121.40;;;27.20;;
72117;SDS011;59992;47.490;8.736;2024-01-11T14:03:06;128.60;;;26.70;;
72117;SDS011;59992;47.490;8.736;2024-01-11T14:05:57;138.70;;;25.90;;
72117;SDS011;59992;47.490;8.736;2024-01-11T14:08:50;128.80;;;27.30;;
72117;SDS011;59992;47.490;8.736;2024-01-11T14:11:40;130.90;;;25.80;;
72117;SDS011;59992;47.490;8.736;2024-01-11T14:14:30;120.50;;;25.20;;
72117;SDS011;59992;47.490;8.736;2024-01-11T14:17:21;108.10;;;24.90;;
72117;SDS011;59992;47.490;8.736;2024-01-11T14:20:11;98.40;;;24.60;;
72117;SDS011;59992;47.490;8.736;2024-01-11T14:23:02;106.40;;;25.10;;
72117;SDS011;59992;47.490;8.736;2024-01-11T14:25:52;134.60;;;23.90;;
72117;SDS011;59992;47.490;8.736;2024-01-11T14:28:44;122.10;;;24.20;;
72117;SDS011;59992;47.490;8.736;2024-01-11T14:31:34;126.60;;;24.90;;
72117;SDS011;59992;47.490;8.736;2024-01-11T14:34:25;117.80;;;24.60;;
72117;SDS011;59992;47.490;8.736;2024-01-11T14:37:15;108.90;;;24.80;;
72117;SDS011;59992;47.490;8.736;2024-01-11T14:40:06;100.80;;;21.90;;
72117;SDS011;59992;47.490;8.736;2024-01-11T14:42:58;95.70;;;20.80;;
72117;SDS011;59992;47.490;8.736;2024-01-11T14:45:49;93.80;;;18.90;;
72117;SDS011;59992;47.490;8.736;2024-01-11T14:48:39;93.90;;;21.60;;
72117;SDS011;59992;47.490;8.736;2024-01-11T14:51:29;87.30;;;19.30;;
72117;SDS011;59992;47.490;8.736;2024-01-11T14:54:21;77.70;;;16.40;;
72117;SDS011;59992;47.490;8.736;2024-01-11T14:57:12;80.70;;;17.30;;
72117;SDS011;59992;47.490;8.736;2024-01-11T15:00:03;76.20;;;18.40;;
72117;SDS011;59992;47.490;8.736;2024-01-11T15:02:55;83.00;;;19.30;;
72117;SDS011;59992;47.490;8.736;2024-01-11T15:05:45;92.20;;;19.50;;
72117;SDS011;59992;47.490;8.736;2024-01-11T15:08:36;89.10;;;18.10;;
72117;SDS011;59992;47.490;8.736;2024-01-11T15:11:26;83.80;;;16.20;;
72117;SDS011;59992;47.490;8.736;2024-01-11T15:14:18;82.70;;;18.20;;
72117;SDS011;59992;47.490;8.736;2024-01-11T15:17:08;96.10;;;19.00;;
72117;SDS011;59992;47.490;8.736;2024-01-11T15:19:58;83.70;;;19.30;;
72117;SDS011;59992;47.490;8.736;2024-01-11T15:22:50;93.70;;;20.20;;
72117;SDS011;59992;47.490;8.736;2024-01-11T15:25:40;93.00;;;19.30;;
72117;SDS011;59992;47.490;8.736;2024-01-11T15:28:31;65.50;;;17.50;;
72117;SDS011;59992;47.490;8.736;2024-01-11T15:31:22;81.90;;;18.50;;
72117;SDS011;59992;47.490;8.736;2024-01-11T15:34:13;84.20;;;16.80;;
72117;SDS011;59992;47.490;8.736;2024-01-11T15:37:03;96.80;;;19.50;;
72117;SDS011;59992;47.490;8.736;2024-01-11T15:39:55;102.30;;;21.60;;
72117;SDS011;59992;47.490;8.736;2024-01-11T15:42:46;76.50;;;21.40;;
72117;SDS011;59992;47.490;8.736;2024-01-11T15:45:37;72.50;;;18.10;;
72117;SDS011;59992;47.490;8.736;2024-01-11T15:48:27;58.30;;;16.90;;
72117;SDS011;59992;47.490;8.736;2024-01-11T15:51:18;66.40;;;16.80;;
72117;SDS011;59992;47.490;8.736;2024-01-11T15:54:09;64.40;;;15.30;;
72117;SDS011;59992;47.490;8.736;2024-01-11T15:57:00;64.30;;;15.60;;
72117;SDS011;59992;47.490;8.736;2024-01-11T15:59:52;62.10;;;13.50;;
72117;SDS011;59992;47.490;8.736;2024-01-11T16:02:42;73.90;;;14.80;;
72117;SDS011;59992;47.490;8.736;2024-01-11T16:05:33;60.60;;;16.70;;
72117;SDS011;59992;47.490;8.736;2024-01-11T16:08:23;69.50;;;16.90;;
72117;SDS011;59992;47.490;8.736;2024-01-11T16:11:14;67.40;;;17.80;;
72117;SDS011;59992;47.490;8.736;2024-01-11T16:14:04;70.00;;;16.60;;
72117;SDS011;59992;47.490;8.736;2024-01-11T16:16:55;72.00;;;15.10;;
72117;SDS011;59992;47.490;8.736;2024-01-11T16:19:45;88.00;;;16.60;;
72117;SDS011;59992;47.490;8.736;2024-01-11T16:22:36;87.80;;;18.10;;
72117;SDS011;59992;47.490;8.736;2024-01-11T16:25:26;88.80;;;16.30;;
72117;SDS011;59992;47.490;8.736;2024-01-11T16:28:17;83.30;;;19.00;;
72117;SDS011;59992;47.490;8.736;2024-01-11T16:31:08;84.20;;;17.80;;